[ ตารางข้อมูล ] [ Min-Max ] [ วันนี้4 ] [ วันนี้2 ] [ เทียบ3วัน A ] [ เทียบ4วัน B ]   

วันนี้2   [ ◀ ช่วงเก่ากว่า ] [ ช่วงที่ 236 ] [ ช่วงใหม่กว่า ▶ ] [ ล่าสุด ]    [ 3 ชั่วโมง ] [ 6 ชั่วโมง ] [ 12 ชั่วโมง ] [ 24 ชั่วโมง ]   วันนี้2

อุณภูมิตู้ Knockdown4529  ราย 6 ชั่วโมง  ที่วัดได้ ในช่วงวันเวลา 08/03/2026 (11:04) ถึง 08/03/2026 (17:04) 
ความชื้นในตู้ Knockdown4529  ราย 6 ชั่วโมง  ที่วัดได้ ในช่วงวันเวลา 08/03/2026 (11:04) ถึง 08/03/2026 (17:04) 

 
DS18B20SHTC3 
IDDate d/m/Y & Timedata1
สูง
data2
ต่ำ
data3
นอก
temp
pcb
hum
pcb
Time
 608  08/03/2026 17:03:06  30.9  30.8  29.7  30.7  66.8  17:03 
 607  08/03/2026 16:58:24  30.9  30.9  29.8  30.8  65.9  16:58 
 606  08/03/2026 16:53:43  31.0  30.9  29.9  30.8  66.5  16:53 
 605  08/03/2026 16:49:02  30.9  30.9  29.9  30.8  66.2  16:49 
 604  08/03/2026 16:44:20  31.0  30.9  30.0  30.9  65.9  16:44 
 603  08/03/2026 16:39:39  31.2  31.1  30.2  31.1  67.0  16:39 
 602  08/03/2026 16:34:58  31.1  31.1  30.0  31.1  66.1  16:34 
 601  08/03/2026 16:30:16  31.1  31.1  30.0  31.1  66.2  16:30 
 600  08/03/2026 16:25:35  31.1  31.1  30.2  31.2  66.1  16:25 
 599  08/03/2026 16:20:53  31.2  31.2  30.3  31.1  65.8  16:20 
 598  08/03/2026 16:16:11  31.2  31.2  30.3  31.2  65.9  16:16 
 597  08/03/2026 16:11:30  31.2  31.2  30.4  31.2  65.7  16:11 
 596  08/03/2026 16:06:48  31.3  31.2  30.5  31.1  65.5  16:06 
 595  08/03/2026 16:02:07  31.4  31.2  30.5  31.1  65.4  16:02 
 594  08/03/2026 15:57:25  31.4  31.3  30.5  31.2  65.2  15:57 
 593  08/03/2026 15:52:43  31.4  31.3  30.4  31.2  65.1  15:52 
 592  08/03/2026 15:48:01  31.4  31.4  30.7  31.4  65.3  15:48 
 591  08/03/2026 15:43:19  31.5  31.4  30.9  31.5  65.3  15:43 
 590  08/03/2026 15:38:38  31.5  31.4  30.8  31.5  65.2  15:38 
 589  08/03/2026 15:33:57  31.6  31.4  30.7  31.4  65.0  15:33 
 588  08/03/2026 15:29:15  31.6  31.4  30.7  31.5  64.9  15:29 
 587  08/03/2026 15:24:33  31.6  31.4  31.0  31.5  64.8  15:24 
 586  08/03/2026 15:19:51  31.6  31.5  30.8  31.4  64.6  15:19 
 585  08/03/2026 15:15:09  31.7  31.5  30.7  31.6  64.5  15:15 

Data every 5 minute.


ใช้เวลาประมวลผล 0.00552 วินาที